sensor_id;sensor_type;location;lat;lon;timestamp;temperature;humidity
39103;DHT22;24847;48.218;16.414;2022-09-27T00:02:28;13.90;99.90
39103;DHT22;24847;48.218;16.414;2022-09-27T00:07:31;13.80;99.90
39103;DHT22;24847;48.218;16.414;2022-09-27T00:12:34;14.10;99.90
39103;DHT22;24847;48.218;16.414;2022-09-27T00:17:37;14.10;99.90
39103;DHT22;24847;48.218;16.414;2022-09-27T00:22:41;14.00;99.90
39103;DHT22;24847;48.218;16.414;2022-09-27T00:27:43;13.60;99.90
39103;DHT22;24847;48.218;16.414;2022-09-27T00:32:46;13.50;99.90
39103;DHT22;24847;48.218;16.414;2022-09-27T00:37:49;13.60;99.90
39103;DHT22;24847;48.218;16.414;2022-09-27T00:42:52;13.60;99.90
39103;DHT22;24847;48.218;16.414;2022-09-27T00:47:56;13.60;99.90
39103;DHT22;24847;48.218;16.414;2022-09-27T00:53:09;13.30;99.90
39103;DHT22;24847;48.218;16.414;2022-09-27T00:58:14;13.30;99.90
39103;DHT22;24847;48.218;16.414;2022-09-27T01:03:23;13.30;99.90
39103;DHT22;24847;48.218;16.414;2022-09-27T01:08:32;13.50;99.90
39103;DHT22;24847;48.218;16.414;2022-09-27T01:13:42;13.40;99.90
39103;DHT22;24847;48.218;16.414;2022-09-27T01:18:59;13.20;99.90
39103;DHT22;24847;48.218;16.414;2022-09-27T01:24:36;13.10;99.90
39103;DHT22;24847;48.218;16.414;2022-09-27T01:35:30;13.30;99.90
39103;DHT22;24847;48.218;16.414;2022-09-27T01:40:40;13.00;99.90
39103;DHT22;24847;48.218;16.414;2022-09-27T01:45:51;12.80;99.90
39103;DHT22;24847;48.218;16.414;2022-09-27T01:51:01;12.80;99.90
39103;DHT22;24847;48.218;16.414;2022-09-27T01:56:07;12.90;99.90
39103;DHT22;24847;48.218;16.414;2022-09-27T02:01:13;13.10;99.90
39103;DHT22;24847;48.218;16.414;2022-09-27T02:06:20;13.10;99.90
39103;DHT22;24847;48.218;16.414;2022-09-27T02:11:24;12.80;99.90
39103;DHT22;24847;48.218;16.414;2022-09-27T02:16:37;12.70;99.90
39103;DHT22;24847;48.218;16.414;2022-09-27T02:21:52;12.80;99.90
39103;DHT22;24847;48.218;16.414;2022-09-27T02:27:01;12.80;99.90
39103;DHT22;24847;48.218;16.414;2022-09-27T02:32:08;12.70;99.90
39103;DHT22;24847;48.218;16.414;2022-09-27T02:37:11;12.70;99.90
39103;DHT22;24847;48.218;16.414;2022-09-27T02:42:13;13.00;99.90
39103;DHT22;24847;48.218;16.414;2022-09-27T02:47:28;13.20;99.90
39103;DHT22;24847;48.218;16.414;2022-09-27T02:52:48;12.80;99.90
39103;DHT22;24847;48.218;16.414;2022-09-27T02:58:01;13.00;99.90
39103;DHT22;24847;48.218;16.414;2022-09-27T03:03:13;13.10;99.90
39103;DHT22;24847;48.218;16.414;2022-09-27T03:08:19;13.30;99.90
39103;DHT22;24847;48.218;16.414;2022-09-27T03:13:21;13.40;99.90
39103;DHT22;24847;48.218;16.414;2022-09-27T03:18:25;13.40;99.90
39103;DHT22;24847;48.218;16.414;2022-09-27T03:23:27;13.30;99.90
39103;DHT22;24847;48.218;16.414;2022-09-27T03:28:29;13.30;99.90
39103;DHT22;24847;48.218;16.414;2022-09-27T03:33:33;12.90;99.90
39103;DHT22;24847;48.218;16.414;2022-09-27T03:38:35;12.60;99.90
39103;DHT22;24847;48.218;16.414;2022-09-27T03:43:37;12.40;99.90
39103;DHT22;24847;48.218;16.414;2022-09-27T03:48:40;12.50;99.90
39103;DHT22;24847;48.218;16.414;2022-09-27T03:53:43;12.70;99.90
39103;DHT22;24847;48.218;16.414;2022-09-27T03:58:45;12.40;99.90
39103;DHT22;24847;48.218;16.414;2022-09-27T04:03:49;12.30;99.90
39103;DHT22;24847;48.218;16.414;2022-09-27T04:08:51;12.50;99.90
39103;DHT22;24847;48.218;16.414;2022-09-27T04:13:54;12.50;99.90
39103;DHT22;24847;48.218;16.414;2022-09-27T04:18:58;12.50;99.90
39103;DHT22;24847;48.218;16.414;2022-09-27T04:24:01;12.50;99.90
39103;DHT22;24847;48.218;16.414;2022-09-27T04:29:04;12.90;99.90
39103;DHT22;24847;48.218;16.414;2022-09-27T04:34:10;12.80;99.90
39103;DHT22;24847;48.218;16.414;2022-09-27T04:39:12;12.60;99.90
39103;DHT22;24847;48.218;16.414;2022-09-27T04:44:14;12.50;99.90
39103;DHT22;24847;48.218;16.414;2022-09-27T04:49:18;12.40;99.90
39103;DHT22;24847;48.218;16.414;2022-09-27T04:54:20;12.70;99.90
39103;DHT22;24847;48.218;16.414;2022-09-27T04:59:23;12.70;99.90
39103;DHT22;24847;48.218;16.414;2022-09-27T05:04:27;12.90;99.90
39103;DHT22;24847;48.218;16.414;2022-09-27T05:09:29;13.00;99.90
39103;DHT22;24847;48.218;16.414;2022-09-27T05:14:31;12.80;99.90
39103;DHT22;24847;48.218;16.414;2022-09-27T05:19:35;12.90;99.90
39103;DHT22;24847;48.218;16.414;2022-09-27T05:24:39;13.00;99.90
39103;DHT22;24847;48.218;16.414;2022-09-27T05:29:41;12.90;99.90
39103;DHT22;24847;48.218;16.414;2022-09-27T05:34:44;13.10;99.90
39103;DHT22;24847;48.218;16.414;2022-09-27T05:39:46;12.90;99.90
39103;DHT22;24847;48.218;16.414;2022-09-27T05:44:49;12.80;99.90
39103;DHT22;24847;48.218;16.414;2022-09-27T05:49:53;13.00;99.90
39103;DHT22;24847;48.218;16.414;2022-09-27T05:54:55;12.90;99.90
39103;DHT22;24847;48.218;16.414;2022-09-27T05:59:58;12.80;99.90
39103;DHT22;24847;48.218;16.414;2022-09-27T06:05:02;12.90;99.90
39103;DHT22;24847;48.218;16.414;2022-09-27T06:10:05;12.90;99.90
39103;DHT22;24847;48.218;16.414;2022-09-27T06:15:08;12.90;99.90
39103;DHT22;24847;48.218;16.414;2022-09-27T06:20:12;13.10;99.90
39103;DHT22;24847;48.218;16.414;2022-09-27T06:25:15;13.00;99.90
39103;DHT22;24847;48.218;16.414;2022-09-27T06:30:17;13.10;99.90
39103;DHT22;24847;48.218;16.414;2022-09-27T06:35:20;12.90;99.90
39103;DHT22;24847;48.218;16.414;2022-09-27T06:40:24;13.00;99.90
39103;DHT22;24847;48.218;16.414;2022-09-27T06:45:26;13.10;99.90
39103;DHT22;24847;48.218;16.414;2022-09-27T06:50:31;13.20;99.90
39103;DHT22;24847;48.218;16.414;2022-09-27T06:55:34;13.10;99.90
39103;DHT22;24847;48.218;16.414;2022-09-27T07:00:37;13.10;99.90
39103;DHT22;24847;48.218;16.414;2022-09-27T07:05:41;13.00;99.90
39103;DHT22;24847;48.218;16.414;2022-09-27T07:10:43;13.10;99.90
39103;DHT22;24847;48.218;16.414;2022-09-27T07:15:46;13.30;99.90
39103;DHT22;24847;48.218;16.414;2022-09-27T07:20:49;13.30;99.90
39103;DHT22;24847;48.218;16.414;2022-09-27T07:25:52;13.40;99.90
39103;DHT22;24847;48.218;16.414;2022-09-27T07:30:54;13.40;99.90
39103;DHT22;24847;48.218;16.414;2022-09-27T07:35:58;13.30;99.90
39103;DHT22;24847;48.218;16.414;2022-09-27T07:41:04;13.30;99.90
39103;DHT22;24847;48.218;16.414;2022-09-27T07:46:07;13.30;99.90
39103;DHT22;24847;48.218;16.414;2022-09-27T07:51:12;13.40;99.90
39103;DHT22;24847;48.218;16.414;2022-09-27T07:56:14;13.60;99.90
39103;DHT22;24847;48.218;16.414;2022-09-27T08:01:16;13.80;99.90
39103;DHT22;24847;48.218;16.414;2022-09-27T08:06:19;13.80;99.90
39103;DHT22;24847;48.218;16.414;2022-09-27T08:11:22;13.60;99.90
39103;DHT22;24847;48.218;16.414;2022-09-27T08:16:24;13.60;99.90
39103;DHT22;24847;48.218;16.414;2022-09-27T08:21:27;13.50;99.90
39103;DHT22;24847;48.218;16.414;2022-09-27T08:26:30;13.50;99.90
39103;DHT22;24847;48.218;16.414;2022-09-27T08:31:33;13.50;99.90
39103;DHT22;24847;48.218;16.414;2022-09-27T08:36:36;13.30;99.90
39103;DHT22;24847;48.218;16.414;2022-09-27T08:41:45;13.20;99.90
39103;DHT22;24847;48.218;16.414;2022-09-27T08:46:56;13.20;99.90
39103;DHT22;24847;48.218;16.414;2022-09-27T08:52:11;13.00;99.90
39103;DHT22;24847;48.218;16.414;2022-09-27T08:57:16;12.50;99.90
39103;DHT22;24847;48.218;16.414;2022-09-27T09:02:20;12.80;99.90
39103;DHT22;24847;48.218;16.414;2022-09-27T09:07:41;12.70;99.90
39103;DHT22;24847;48.218;16.414;2022-09-27T09:12:55;12.90;99.90
39103;DHT22;24847;48.218;16.414;2022-09-27T09:18:14;13.00;99.90
39103;DHT22;24847;48.218;16.414;2022-09-27T09:23:38;12.90;99.90
39103;DHT22;24847;48.218;16.414;2022-09-27T09:29:11;12.70;99.90
39103;DHT22;24847;48.218;16.414;2022-09-27T09:34:21;13.20;99.90
39103;DHT22;24847;48.218;16.414;2022-09-27T09:39:31;13.50;99.90
39103;DHT22;24847;48.218;16.414;2022-09-27T09:44:43;13.20;99.90
39103;DHT22;24847;48.218;16.414;2022-09-27T09:49:51;12.90;99.90
39103;DHT22;24847;48.218;16.414;2022-09-27T09:55:02;13.20;99.90
39103;DHT22;24847;48.218;16.414;2022-09-27T10:00:12;13.20;99.90
39103;DHT22;24847;48.218;16.414;2022-09-27T10:05:18;12.90;99.90
39103;DHT22;24847;48.218;16.414;2022-09-27T10:10:23;13.10;99.90
39103;DHT22;24847;48.218;16.414;2022-09-27T10:15:27;13.60;99.90
39103;DHT22;24847;48.218;16.414;2022-09-27T10:20:34;13.50;99.90
39103;DHT22;24847;48.218;16.414;2022-09-27T10:25:57;13.70;99.90
39103;DHT22;24847;48.218;16.414;2022-09-27T10:31:03;13.90;99.90
39103;DHT22;24847;48.218;16.414;2022-09-27T10:36:22;14.10;99.90
39103;DHT22;24847;48.218;16.414;2022-09-27T10:41:31;14.30;99.90
39103;DHT22;24847;48.218;16.414;2022-09-27T10:46:34;14.30;99.90
39103;DHT22;24847;48.218;16.414;2022-09-27T10:51:37;14.50;99.90
39103;DHT22;24847;48.218;16.414;2022-09-27T10:56:40;14.20;99.90
39103;DHT22;24847;48.218;16.414;2022-09-27T11:01:44;14.50;99.90
39103;DHT22;24847;48.218;16.414;2022-09-27T11:06:50;14.60;99.90
39103;DHT22;24847;48.218;16.414;2022-09-27T11:12:07;14.80;99.90
39103;DHT22;24847;48.218;16.414;2022-09-27T11:17:16;14.40;99.90
39103;DHT22;24847;48.218;16.414;2022-09-27T11:22:31;14.30;99.90
39103;DHT22;24847;48.218;16.414;2022-09-27T11:28:02;14.20;99.90
39103;DHT22;24847;48.218;16.414;2022-09-27T11:33:30;14.40;99.90
39103;DHT22;24847;48.218;16.414;2022-09-27T11:38:52;14.40;99.90
39103;DHT22;24847;48.218;16.414;2022-09-27T11:44:28;14.00;99.90
39103;DHT22;24847;48.218;16.414;2022-09-27T11:50:17;14.20;99.90
39103;DHT22;24847;48.218;16.414;2022-09-27T11:55:37;14.30;99.90
39103;DHT22;24847;48.218;16.414;2022-09-27T12:00:56;14.50;99.90
39103;DHT22;24847;48.218;16.414;2022-09-27T12:06:08;14.10;99.90
39103;DHT22;24847;48.218;16.414;2022-09-27T12:11:18;14.10;99.90
39103;DHT22;24847;48.218;16.414;2022-09-27T12:16:25;14.50;99.90
39103;DHT22;24847;48.218;16.414;2022-09-27T12:21:30;14.60;99.90
39103;DHT22;24847;48.218;16.414;2022-09-27T12:26:36;14.60;99.90
39103;DHT22;24847;48.218;16.414;2022-09-27T12:31:45;14.50;99.90
39103;DHT22;24847;48.218;16.414;2022-09-27T12:36:57;14.60;99.90
39103;DHT22;24847;48.218;16.414;2022-09-27T12:42:03;14.50;99.90
39103;DHT22;24847;48.218;16.414;2022-09-27T12:47:30;14.40;99.90
39103;DHT22;24847;48.218;16.414;2022-09-27T12:52:43;14.60;99.90
39103;DHT22;24847;48.218;16.414;2022-09-27T12:57:56;14.50;99.90
39103;DHT22;24847;48.218;16.414;2022-09-27T13:03:24;14.60;99.90
39103;DHT22;24847;48.218;16.414;2022-09-27T13:08:44;14.80;99.90
39103;DHT22;24847;48.218;16.414;2022-09-27T13:13:55;14.50;99.90
39103;DHT22;24847;48.218;16.414;2022-09-27T13:19:00;14.30;99.90
39103;DHT22;24847;48.218;16.414;2022-09-27T13:29:49;14.20;99.90
39103;DHT22;24847;48.218;16.414;2022-09-27T13:34:54;14.00;99.90
39103;DHT22;24847;48.218;16.414;2022-09-27T13:40:23;14.10;99.90
39103;DHT22;24847;48.218;16.414;2022-09-27T13:45:31;14.20;99.90
39103;DHT22;24847;48.218;16.414;2022-09-27T13:50:44;14.30;99.90
39103;DHT22;24847;48.218;16.414;2022-09-27T13:55:49;14.20;99.90
39103;DHT22;24847;48.218;16.414;2022-09-27T14:00:54;14.30;99.90
39103;DHT22;24847;48.218;16.414;2022-09-27T14:06:02;14.00;99.90
39103;DHT22;24847;48.218;16.414;2022-09-27T14:11:11;14.30;99.90
39103;DHT22;24847;48.218;16.414;2022-09-27T14:16:16;14.50;99.90
39103;DHT22;24847;48.218;16.414;2022-09-27T14:21:27;14.40;99.90
39103;DHT22;24847;48.218;16.414;2022-09-27T14:26:31;14.50;99.90
39103;DHT22;24847;48.218;16.414;2022-09-27T14:31:33;14.50;99.90
39103;DHT22;24847;48.218;16.414;2022-09-27T14:36:37;14.20;99.90
39103;DHT22;24847;48.218;16.414;2022-09-27T14:41:57;14.00;99.90
39103;DHT22;24847;48.218;16.414;2022-09-27T14:47:07;14.10;99.90
39103;DHT22;24847;48.218;16.414;2022-09-27T14:52:15;14.00;99.90
39103;DHT22;24847;48.218;16.414;2022-09-27T14:57:20;13.90;99.90
39103;DHT22;24847;48.218;16.414;2022-09-27T15:02:24;14.10;99.90
39103;DHT22;24847;48.218;16.414;2022-09-27T15:07:30;13.90;99.90
39103;DHT22;24847;48.218;16.414;2022-09-27T15:12:32;14.00;99.90
39103;DHT22;24847;48.218;16.414;2022-09-27T15:17:41;13.90;99.90
39103;DHT22;24847;48.218;16.414;2022-09-27T15:22:45;13.90;99.90
39103;DHT22;24847;48.218;16.414;2022-09-27T15:27:50;13.90;99.90
39103;DHT22;24847;48.218;16.414;2022-09-27T15:32:54;14.00;99.90
39103;DHT22;24847;48.218;16.414;2022-09-27T15:38:24;14.00;99.90
39103;DHT22;24847;48.218;16.414;2022-09-27T15:43:30;13.80;99.90
39103;DHT22;24847;48.218;16.414;2022-09-27T15:48:34;13.90;99.90
39103;DHT22;24847;48.218;16.414;2022-09-27T15:53:42;13.90;99.90
39103;DHT22;24847;48.218;16.414;2022-09-27T15:58:45;13.80;99.90
39103;DHT22;24847;48.218;16.414;2022-09-27T16:03:48;13.80;99.90
39103;DHT22;24847;48.218;16.414;2022-09-27T16:08:51;13.80;99.90
39103;DHT22;24847;48.218;16.414;2022-09-27T16:13:53;13.70;99.90
39103;DHT22;24847;48.218;16.414;2022-09-27T16:18:55;13.80;99.90
39103;DHT22;24847;48.218;16.414;2022-09-27T16:23:59;13.80;99.90
39103;DHT22;24847;48.218;16.414;2022-09-27T16:29:03;13.60;99.90
39103;DHT22;24847;48.218;16.414;2022-09-27T16:34:07;13.40;99.90
39103;DHT22;24847;48.218;16.414;2022-09-27T16:39:12;13.40;99.90
39103;DHT22;24847;48.218;16.414;2022-09-27T16:44:14;13.40;99.90
39103;DHT22;24847;48.218;16.414;2022-09-27T16:49:17;13.40;99.90
39103;DHT22;24847;48.218;16.414;2022-09-27T16:54:38;13.40;99.90
39103;DHT22;24847;48.218;16.414;2022-09-27T16:59:40;13.30;99.90
39103;DHT22;24847;48.218;16.414;2022-09-27T17:04:43;13.30;99.90
39103;DHT22;24847;48.218;16.414;2022-09-27T17:09:46;13.10;99.90
39103;DHT22;24847;48.218;16.414;2022-09-27T17:14:48;13.00;99.90
39103;DHT22;24847;48.218;16.414;2022-09-27T17:19:51;13.10;99.90
39103;DHT22;24847;48.218;16.414;2022-09-27T17:24:54;13.00;99.90
39103;DHT22;24847;48.218;16.414;2022-09-27T17:29:56;13.00;99.90
39103;DHT22;24847;48.218;16.414;2022-09-27T17:34:59;12.90;99.90
39103;DHT22;24847;48.218;16.414;2022-09-27T17:40:03;12.90;99.90
39103;DHT22;24847;48.218;16.414;2022-09-27T17:45:07;13.00;99.90
39103;DHT22;24847;48.218;16.414;2022-09-27T17:50:09;12.90;99.90
39103;DHT22;24847;48.218;16.414;2022-09-27T17:55:29;12.70;99.90
39103;DHT22;24847;48.218;16.414;2022-09-27T18:00:32;12.80;99.90
39103;DHT22;24847;48.218;16.414;2022-09-27T18:05:35;12.80;99.90
39103;DHT22;24847;48.218;16.414;2022-09-27T18:10:39;12.70;99.90
39103;DHT22;24847;48.218;16.414;2022-09-27T18:15:41;12.80;99.90
39103;DHT22;24847;48.218;16.414;2022-09-27T18:20:44;12.70;99.90
39103;DHT22;24847;48.218;16.414;2022-09-27T18:25:53;12.70;99.90
39103;DHT22;24847;48.218;16.414;2022-09-27T18:31:01;12.70;99.90
39103;DHT22;24847;48.218;16.414;2022-09-27T18:36:06;12.70;99.90
39103;DHT22;24847;48.218;16.414;2022-09-27T18:41:13;12.70;99.90
39103;DHT22;24847;48.218;16.414;2022-09-27T18:46:17;12.70;99.90
39103;DHT22;24847;48.218;16.414;2022-09-27T18:51:22;12.70;99.90
39103;DHT22;24847;48.218;16.414;2022-09-27T18:56:28;12.80;99.90
39103;DHT22;24847;48.218;16.414;2022-09-27T19:01:30;12.80;99.90
39103;DHT22;24847;48.218;16.414;2022-09-27T19:06:35;12.70;99.90
39103;DHT22;24847;48.218;16.414;2022-09-27T19:11:40;12.70;99.90
39103;DHT22;24847;48.218;16.414;2022-09-27T19:16:42;12.70;99.90
39103;DHT22;24847;48.218;16.414;2022-09-27T19:21:47;12.60;99.90
39103;DHT22;24847;48.218;16.414;2022-09-27T19:26:50;12.50;99.90
39103;DHT22;24847;48.218;16.414;2022-09-27T19:31:55;12.50;99.90
39103;DHT22;24847;48.218;16.414;2022-09-27T19:36:57;12.60;99.90
39103;DHT22;24847;48.218;16.414;2022-09-27T19:42:01;12.60;99.90
39103;DHT22;24847;48.218;16.414;2022-09-27T19:47:03;12.70;99.90
39103;DHT22;24847;48.218;16.414;2022-09-27T19:52:05;12.60;99.90
39103;DHT22;24847;48.218;16.414;2022-09-27T19:57:09;12.60;99.90
39103;DHT22;24847;48.218;16.414;2022-09-27T20:02:11;12.60;99.90
39103;DHT22;24847;48.218;16.414;2022-09-27T20:07:13;12.60;99.90
39103;DHT22;24847;48.218;16.414;2022-09-27T20:12:17;12.50;99.90
39103;DHT22;24847;48.218;16.414;2022-09-27T20:17:19;12.60;99.90
39103;DHT22;24847;48.218;16.414;2022-09-27T20:22:22;12.60;99.90
39103;DHT22;24847;48.218;16.414;2022-09-27T20:27:25;12.30;99.90
39103;DHT22;24847;48.218;16.414;2022-09-27T20:32:28;12.10;99.90
39103;DHT22;24847;48.218;16.414;2022-09-27T20:37:31;12.30;99.90
39103;DHT22;24847;48.218;16.414;2022-09-27T20:42:35;12.20;99.90
39103;DHT22;24847;48.218;16.414;2022-09-27T20:47:37;12.20;99.90
39103;DHT22;24847;48.218;16.414;2022-09-27T20:52:42;12.10;99.90
39103;DHT22;24847;48.218;16.414;2022-09-27T20:57:49;12.20;99.90
39103;DHT22;24847;48.218;16.414;2022-09-27T21:02:51;12.00;99.90
39103;DHT22;24847;48.218;16.414;2022-09-27T21:07:53;12.10;99.90
39103;DHT22;24847;48.218;16.414;2022-09-27T21:12:58;12.00;99.90
39103;DHT22;24847;48.218;16.414;2022-09-27T21:18:01;12.00;99.90
39103;DHT22;24847;48.218;16.414;2022-09-27T21:23:04;12.20;99.90
39103;DHT22;24847;48.218;16.414;2022-09-27T21:28:07;12.30;99.90
39103;DHT22;24847;48.218;16.414;2022-09-27T21:33:10;12.30;99.90
39103;DHT22;24847;48.218;16.414;2022-09-27T21:38:12;12.10;99.90
39103;DHT22;24847;48.218;16.414;2022-09-27T21:43:16;12.00;99.90
39103;DHT22;24847;48.218;16.414;2022-09-27T21:48:18;12.10;99.90
39103;DHT22;24847;48.218;16.414;2022-09-27T21:53:20;12.00;99.90
39103;DHT22;24847;48.218;16.414;2022-09-27T21:58:23;12.00;99.90
39103;DHT22;24847;48.218;16.414;2022-09-27T22:03:26;12.10;99.90
39103;DHT22;24847;48.218;16.414;2022-09-27T22:08:28;12.00;99.90
39103;DHT22;24847;48.218;16.414;2022-09-27T22:13:32;12.00;99.90
39103;DHT22;24847;48.218;16.414;2022-09-27T22:18:34;11.80;99.90
39103;DHT22;24847;48.218;16.414;2022-09-27T22:23:37;11.80;99.90
39103;DHT22;24847;48.218;16.414;2022-09-27T22:28:42;11.80;99.90
39103;DHT22;24847;48.218;16.414;2022-09-27T22:33:47;11.80;99.90
39103;DHT22;24847;48.218;16.414;2022-09-27T22:38:50;11.70;99.90
39103;DHT22;24847;48.218;16.414;2022-09-27T22:43:54;11.60;99.90
39103;DHT22;24847;48.218;16.414;2022-09-27T22:48:57;11.60;99.90
39103;DHT22;24847;48.218;16.414;2022-09-27T22:53:59;11.60;99.90
39103;DHT22;24847;48.218;16.414;2022-09-27T22:59:03;11.40;99.90
39103;DHT22;24847;48.218;16.414;2022-09-27T23:04:05;11.50;99.90
39103;DHT22;24847;48.218;16.414;2022-09-27T23:09:07;11.40;99.90
39103;DHT22;24847;48.218;16.414;2022-09-27T23:14:11;11.30;99.90
39103;DHT22;24847;48.218;16.414;2022-09-27T23:19:15;11.30;99.90
39103;DHT22;24847;48.218;16.414;2022-09-27T23:24:19;11.30;99.90
39103;DHT22;24847;48.218;16.414;2022-09-27T23:29:24;11.20;99.90
39103;DHT22;24847;48.218;16.414;2022-09-27T23:34:26;11.30;99.90
39103;DHT22;24847;48.218;16.414;2022-09-27T23:39:28;11.30;99.90
39103;DHT22;24847;48.218;16.414;2022-09-27T23:44:32;11.40;99.90
39103;DHT22;24847;48.218;16.414;2022-09-27T23:49:34;11.50;99.90
39103;DHT22;24847;48.218;16.414;2022-09-27T23:54:36;11.50;99.90
39103;DHT22;24847;48.218;16.414;2022-09-27T23:59:40;11.50;99.90
